sensor_id;sensor_type;location;lat;lon;timestamp;temperature;humidity
11599;DHT22;5855;48.840;9.188;2024-03-23T00:53:09;8.80;99.90
11599;DHT22;5855;48.840;9.188;2024-03-23T00:55:34;8.70;99.90
11599;DHT22;5855;48.840;9.188;2024-03-23T00:58:01;8.70;99.90
11599;DHT22;5855;48.840;9.188;2024-03-23T01:00:27;8.70;99.90
11599;DHT22;5855;48.840;9.188;2024-03-23T01:02:54;8.70;99.90
11599;DHT22;5855;48.840;9.188;2024-03-23T01:05:20;8.70;99.90
11599;DHT22;5855;48.840;9.188;2024-03-23T01:07:47;8.70;99.90
11599;DHT22;5855;48.840;9.188;2024-03-23T01:10:14;8.70;99.90
11599;DHT22;5855;48.840;9.188;2024-03-23T01:12:41;8.80;99.90
11599;DHT22;5855;48.840;9.188;2024-03-23T01:15:08;8.90;99.90
11599;DHT22;5855;48.840;9.188;2024-03-23T01:17:35;9.00;99.90
11599;DHT22;5855;48.840;9.188;2024-03-23T01:20:00;9.10;99.90
11599;DHT22;5855;48.840;9.188;2024-03-23T01:22:28;9.10;99.90
11599;DHT22;5855;48.840;9.188;2024-03-23T01:24:54;9.10;99.90
11599;DHT22;5855;48.840;9.188;2024-03-23T01:27:22;9.20;99.90
11599;DHT22;5855;48.840;9.188;2024-03-23T01:29:48;9.20;99.90
11599;DHT22;5855;48.840;9.188;2024-03-23T01:32:17;9.40;99.90
11599;DHT22;5855;48.840;9.188;2024-03-23T01:34:43;9.60;99.90
11599;DHT22;5855;48.840;9.188;2024-03-23T01:37:10;9.70;99.90
11599;DHT22;5855;48.840;9.188;2024-03-23T01:39:36;9.80;99.90
11599;DHT22;5855;48.840;9.188;2024-03-23T01:42:04;9.90;99.90
11599;DHT22;5855;48.840;9.188;2024-03-23T01:44:31;10.00;99.90
11599;DHT22;5855;48.840;9.188;2024-03-23T01:46:58;10.30;99.90
11599;DHT22;5855;48.840;9.188;2024-03-23T01:49:24;10.50;99.90
11599;DHT22;5855;48.840;9.188;2024-03-23T01:51:51;10.70;99.90
11599;DHT22;5855;48.840;9.188;2024-03-23T01:54:17;10.80;99.90
11599;DHT22;5855;48.840;9.188;2024-03-23T01:56:44;11.00;99.90
11599;DHT22;5855;48.840;9.188;2024-03-23T01:59:10;11.10;99.90
11599;DHT22;5855;48.840;9.188;2024-03-23T02:01:38;11.20;99.90
11599;DHT22;5855;48.840;9.188;2024-03-23T02:04:04;11.40;99.90
11599;DHT22;5855;48.840;9.188;2024-03-23T02:06:31;11.60;99.90
11599;DHT22;5855;48.840;9.188;2024-03-23T02:08:57;11.80;99.90
11599;DHT22;5855;48.840;9.188;2024-03-23T02:11:24;11.90;99.90
11599;DHT22;5855;48.840;9.188;2024-03-23T02:13:50;12.00;99.90
11599;DHT22;5855;48.840;9.188;2024-03-23T02:16:17;12.10;99.90
11599;DHT22;5855;48.840;9.188;2024-03-23T02:18:44;12.10;99.90
11599;DHT22;5855;48.840;9.188;2024-03-23T02:21:11;12.10;99.90
11599;DHT22;5855;48.840;9.188;2024-03-23T02:23:38;12.00;99.90
11599;DHT22;5855;48.840;9.188;2024-03-23T02:26:05;12.10;99.90
11599;DHT22;5855;48.840;9.188;2024-03-23T02:28:31;12.10;99.90
11599;DHT22;5855;48.840;9.188;2024-03-23T02:30:57;12.10;99.90
11599;DHT22;5855;48.840;9.188;2024-03-23T02:33:26;12.10;99.90
11599;DHT22;5855;48.840;9.188;2024-03-23T02:35:56;12.10;99.90
11599;DHT22;5855;48.840;9.188;2024-03-23T02:38:23;12.10;99.90
11599;DHT22;5855;48.840;9.188;2024-03-23T02:40:50;12.20;99.90
11599;DHT22;5855;48.840;9.188;2024-03-23T02:43:17;12.20;99.90
11599;DHT22;5855;48.840;9.188;2024-03-23T02:45:43;12.20;99.90
11599;DHT22;5855;48.840;9.188;2024-03-23T02:48:09;12.20;99.90
11599;DHT22;5855;48.840;9.188;2024-03-23T02:50:35;12.20;99.90
11599;DHT22;5855;48.840;9.188;2024-03-23T02:53:02;12.10;99.90
11599;DHT22;5855;48.840;9.188;2024-03-23T02:55:28;12.20;99.90
11599;DHT22;5855;48.840;9.188;2024-03-23T02:57:56;12.10;99.90
11599;DHT22;5855;48.840;9.188;2024-03-23T03:00:27;12.10;99.90
11599;DHT22;5855;48.840;9.188;2024-03-23T03:02:54;12.10;99.90
11599;DHT22;5855;48.840;9.188;2024-03-23T03:05:20;12.20;99.90
11599;DHT22;5855;48.840;9.188;2024-03-23T03:07:47;12.20;99.90
11599;DHT22;5855;48.840;9.188;2024-03-23T03:10:12;12.20;99.90
11599;DHT22;5855;48.840;9.188;2024-03-23T03:12:39;12.30;99.90
11599;DHT22;5855;48.840;9.188;2024-03-23T03:15:07;12.30;99.90
11599;DHT22;5855;48.840;9.188;2024-03-23T03:17:35;12.30;99.90
11599;DHT22;5855;48.840;9.188;2024-03-23T03:20:01;12.30;99.90
11599;DHT22;5855;48.840;9.188;2024-03-23T03:22:28;12.20;99.90
11599;DHT22;5855;48.840;9.188;2024-03-23T03:24:55;12.20;99.90
11599;DHT22;5855;48.840;9.188;2024-03-23T03:27:20;12.20;99.90
11599;DHT22;5855;48.840;9.188;2024-03-23T03:29:48;12.20;99.90
11599;DHT22;5855;48.840;9.188;2024-03-23T03:32:15;12.20;99.90
11599;DHT22;5855;48.840;9.188;2024-03-23T03:34:42;12.20;99.90
11599;DHT22;5855;48.840;9.188;2024-03-23T03:37:07;12.10;99.90
11599;DHT22;5855;48.840;9.188;2024-03-23T03:39:34;12.10;99.90
11599;DHT22;5855;48.840;9.188;2024-03-23T03:42:00;12.00;99.90
11599;DHT22;5855;48.840;9.188;2024-03-23T03:44:32;12.00;99.90
11599;DHT22;5855;48.840;9.188;2024-03-23T03:46:58;11.90;99.90
11599;DHT22;5855;48.840;9.188;2024-03-23T03:49:26;11.90;99.90
11599;DHT22;5855;48.840;9.188;2024-03-23T03:51:51;11.90;99.90
11599;DHT22;5855;48.840;9.188;2024-03-23T03:54:18;11.90;99.90
11599;DHT22;5855;48.840;9.188;2024-03-23T03:56:44;11.90;99.90
11599;DHT22;5855;48.840;9.188;2024-03-23T03:59:11;11.90;99.90
11599;DHT22;5855;48.840;9.188;2024-03-23T04:01:37;11.90;99.90
11599;DHT22;5855;48.840;9.188;2024-03-23T04:04:03;12.00;99.90
11599;DHT22;5855;48.840;9.188;2024-03-23T04:06:31;11.90;99.90
11599;DHT22;5855;48.840;9.188;2024-03-23T04:08:58;11.90;99.90
11599;DHT22;5855;48.840;9.188;2024-03-23T04:11:24;11.90;99.90
11599;DHT22;5855;48.840;9.188;2024-03-23T04:13:51;11.90;99.90
11599;DHT22;5855;48.840;9.188;2024-03-23T04:16:26;11.90;99.90
11599;DHT22;5855;48.840;9.188;2024-03-23T04:18:52;11.80;99.90
11599;DHT22;5855;48.840;9.188;2024-03-23T04:21:18;11.90;99.90
11599;DHT22;5855;48.840;9.188;2024-03-23T04:23:46;11.90;99.90
11599;DHT22;5855;48.840;9.188;2024-03-23T04:26:12;11.90;99.90
11599;DHT22;5855;48.840;9.188;2024-03-23T04:28:39;11.90;99.90
11599;DHT22;5855;48.840;9.188;2024-03-23T04:31:05;11.80;99.90
11599;DHT22;5855;48.840;9.188;2024-03-23T04:33:32;11.70;99.90
11599;DHT22;5855;48.840;9.188;2024-03-23T04:35:58;11.40;99.90
11599;DHT22;5855;48.840;9.188;2024-03-23T04:38:25;11.10;99.90
11599;DHT22;5855;48.840;9.188;2024-03-23T04:40:55;10.90;99.90
11599;DHT22;5855;48.840;9.188;2024-03-23T04:43:22;10.70;99.90
11599;DHT22;5855;48.840;9.188;2024-03-23T04:45:49;10.60;99.90
11599;DHT22;5855;48.840;9.188;2024-03-23T04:48:16;10.40;99.90
11599;DHT22;5855;48.840;9.188;2024-03-23T04:50:43;10.30;99.90
11599;DHT22;5855;48.840;9.188;2024-03-23T04:53:10;10.30;99.90
11599;DHT22;5855;48.840;9.188;2024-03-23T04:55:35;10.20;99.90
11599;DHT22;5855;48.840;9.188;2024-03-23T04:58:04;10.20;99.90
11599;DHT22;5855;48.840;9.188;2024-03-23T05:00:31;10.10;99.90
11599;DHT22;5855;48.840;9.188;2024-03-23T05:02:56;10.10;99.90
11599;DHT22;5855;48.840;9.188;2024-03-23T05:05:23;10.20;99.90
11599;DHT22;5855;48.840;9.188;2024-03-23T05:07:49;10.20;99.90
11599;DHT22;5855;48.840;9.188;2024-03-23T05:10:16;10.30;99.90
11599;DHT22;5855;48.840;9.188;2024-03-23T05:12:42;10.30;99.90
11599;DHT22;5855;48.840;9.188;2024-03-23T05:15:11;10.30;99.90
11599;DHT22;5855;48.840;9.188;2024-03-23T05:17:38;10.30;99.90
11599;DHT22;5855;48.840;9.188;2024-03-23T05:20:05;10.20;99.90
11599;DHT22;5855;48.840;9.188;2024-03-23T05:22:35;10.20;99.90
11599;DHT22;5855;48.840;9.188;2024-03-23T05:25:02;10.20;99.90
11599;DHT22;5855;48.840;9.188;2024-03-23T05:27:30;10.20;99.90
11599;DHT22;5855;48.840;9.188;2024-03-23T05:29:57;10.10;99.90
11599;DHT22;5855;48.840;9.188;2024-03-23T05:32:24;10.20;99.90
11599;DHT22;5855;48.840;9.188;2024-03-23T05:34:51;10.20;99.90
11599;DHT22;5855;48.840;9.188;2024-03-23T05:37:21;10.10;99.90
11599;DHT22;5855;48.840;9.188;2024-03-23T05:39:48;10.00;99.90
11599;DHT22;5855;48.840;9.188;2024-03-23T05:42:15;10.00;99.90
11599;DHT22;5855;48.840;9.188;2024-03-23T05:44:43;10.00;99.90
11599;DHT22;5855;48.840;9.188;2024-03-23T05:47:09;10.00;99.90
11599;DHT22;5855;48.840;9.188;2024-03-23T05:49:37;10.00;99.90
11599;DHT22;5855;48.840;9.188;2024-03-23T05:52:04;10.00;99.90
11599;DHT22;5855;48.840;9.188;2024-03-23T05:54:30;9.90;99.90
11599;DHT22;5855;48.840;9.188;2024-03-23T05:56:56;9.90;99.90
11599;DHT22;5855;48.840;9.188;2024-03-23T05:59:23;9.90;99.90
11599;DHT22;5855;48.840;9.188;2024-03-23T06:01:49;9.80;99.90
11599;DHT22;5855;48.840;9.188;2024-03-23T06:04:16;9.70;99.90
11599;DHT22;5855;48.840;9.188;2024-03-23T06:06:43;9.70;99.90
11599;DHT22;5855;48.840;9.188;2024-03-23T06:09:10;9.60;99.90
11599;DHT22;5855;48.840;9.188;2024-03-23T06:11:35;9.60;99.90
11599;DHT22;5855;48.840;9.188;2024-03-23T06:14:02;9.50;99.90
11599;DHT22;5855;48.840;9.188;2024-03-23T06:16:28;9.40;99.90
11599;DHT22;5855;48.840;9.188;2024-03-23T06:18:56;9.30;99.90
11599;DHT22;5855;48.840;9.188;2024-03-23T06:21:22;9.30;99.90
11599;DHT22;5855;48.840;9.188;2024-03-23T06:23:51;9.30;99.90
11599;DHT22;5855;48.840;9.188;2024-03-23T06:26:18;9.30;99.90
11599;DHT22;5855;48.840;9.188;2024-03-23T06:28:44;9.30;99.90
11599;DHT22;5855;48.840;9.188;2024-03-23T06:31:10;9.20;99.90
11599;DHT22;5855;48.840;9.188;2024-03-23T06:33:38;9.20;99.90
11599;DHT22;5855;48.840;9.188;2024-03-23T06:36:04;9.20;99.90
11599;DHT22;5855;48.840;9.188;2024-03-23T06:38:31;9.20;99.90
11599;DHT22;5855;48.840;9.188;2024-03-23T06:40:59;9.20;99.90
11599;DHT22;5855;48.840;9.188;2024-03-23T06:43:26;9.10;99.90
11599;DHT22;5855;48.840;9.188;2024-03-23T06:45:55;9.10;99.90
11599;DHT22;5855;48.840;9.188;2024-03-23T06:48:22;9.10;99.90
11599;DHT22;5855;48.840;9.188;2024-03-23T06:50:48;9.10;99.90
11599;DHT22;5855;48.840;9.188;2024-03-23T06:53:15;9.00;99.90
11599;DHT22;5855;48.840;9.188;2024-03-23T06:55:41;9.00;99.90
11599;DHT22;5855;48.840;9.188;2024-03-23T06:58:09;9.00;99.90
11599;DHT22;5855;48.840;9.188;2024-03-23T07:00:35;8.90;99.90
11599;DHT22;5855;48.840;9.188;2024-03-23T07:03:02;8.90;99.90
11599;DHT22;5855;48.840;9.188;2024-03-23T07:05:29;8.90;99.90
11599;DHT22;5855;48.840;9.188;2024-03-23T07:07:56;8.90;99.90
11599;DHT22;5855;48.840;9.188;2024-03-23T07:10:22;8.90;99.90
11599;DHT22;5855;48.840;9.188;2024-03-23T07:12:48;8.90;99.90
11599;DHT22;5855;48.840;9.188;2024-03-23T07:15:16;8.90;99.90
11599;DHT22;5855;48.840;9.188;2024-03-23T07:17:46;8.90;99.90
11599;DHT22;5855;48.840;9.188;2024-03-23T07:20:11;8.90;99.90
11599;DHT22;5855;48.840;9.188;2024-03-23T07:22:38;8.80;99.90
11599;DHT22;5855;48.840;9.188;2024-03-23T07:25:05;8.90;99.90
11599;DHT22;5855;48.840;9.188;2024-03-23T07:27:32;8.90;99.90
11599;DHT22;5855;48.840;9.188;2024-03-23T07:29:59;8.90;99.90
11599;DHT22;5855;48.840;9.188;2024-03-23T07:32:27;8.90;99.90
11599;DHT22;5855;48.840;9.188;2024-03-23T07:34:53;8.90;99.90
11599;DHT22;5855;48.840;9.188;2024-03-23T07:37:20;8.90;99.90
11599;DHT22;5855;48.840;9.188;2024-03-23T07:39:46;8.90;99.90
11599;DHT22;5855;48.840;9.188;2024-03-23T07:42:13;8.90;99.90
11599;DHT22;5855;48.840;9.188;2024-03-23T07:44:40;8.90;99.90
11599;DHT22;5855;48.840;9.188;2024-03-23T07:47:06;8.90;99.90
11599;DHT22;5855;48.840;9.188;2024-03-23T07:49:34;8.80;99.90
11599;DHT22;5855;48.840;9.188;2024-03-23T07:52:00;8.80;99.90
11599;DHT22;5855;48.840;9.188;2024-03-23T07:54:26;8.70;99.90
11599;DHT22;5855;48.840;9.188;2024-03-23T07:56:54;8.60;99.90
11599;DHT22;5855;48.840;9.188;2024-03-23T07:59:20;8.60;99.90
11599;DHT22;5855;48.840;9.188;2024-03-23T08:01:47;8.50;99.90
11599;DHT22;5855;48.840;9.188;2024-03-23T08:04:13;8.40;99.90
11599;DHT22;5855;48.840;9.188;2024-03-23T08:06:41;8.40;99.90
11599;DHT22;5855;48.840;9.188;2024-03-23T08:09:07;8.20;99.90
11599;DHT22;5855;48.840;9.188;2024-03-23T08:11:33;8.20;99.90
11599;DHT22;5855;48.840;9.188;2024-03-23T08:14:00;8.30;99.90
11599;DHT22;5855;48.840;9.188;2024-03-23T08:16:27;8.40;99.90
11599;DHT22;5855;48.840;9.188;2024-03-23T08:18:53;8.40;99.90
11599;DHT22;5855;48.840;9.188;2024-03-23T08:21:21;8.40;99.90
11599;DHT22;5855;48.840;9.188;2024-03-23T08:23:48;8.30;99.90
11599;DHT22;5855;48.840;9.188;2024-03-23T08:26:16;8.20;99.90
11599;DHT22;5855;48.840;9.188;2024-03-23T08:28:43;8.30;99.90
11599;DHT22;5855;48.840;9.188;2024-03-23T08:31:11;8.40;99.90
11599;DHT22;5855;48.840;9.188;2024-03-23T08:33:37;8.40;99.90
11599;DHT22;5855;48.840;9.188;2024-03-23T08:36:06;8.50;99.90
11599;DHT22;5855;48.840;9.188;2024-03-23T08:38:32;8.50;99.90
11599;DHT22;5855;48.840;9.188;2024-03-23T08:41:01;8.40;99.90
11599;DHT22;5855;48.840;9.188;2024-03-23T08:43:28;8.50;99.90
11599;DHT22;5855;48.840;9.188;2024-03-23T08:46:03;8.60;99.90
11599;DHT22;5855;48.840;9.188;2024-03-23T08:48:29;8.60;99.90
11599;DHT22;5855;48.840;9.188;2024-03-23T08:51:00;8.60;99.90
11599;DHT22;5855;48.840;9.188;2024-03-23T08:53:27;8.60;99.90
11599;DHT22;5855;48.840;9.188;2024-03-23T08:55:54;8.60;99.90
11599;DHT22;5855;48.840;9.188;2024-03-23T08:58:23;8.50;99.90
11599;DHT22;5855;48.840;9.188;2024-03-23T09:00:49;8.30;99.90
11599;DHT22;5855;48.840;9.188;2024-03-23T09:03:15;8.20;99.90
11599;DHT22;5855;48.840;9.188;2024-03-23T09:05:42;8.00;99.90
11599;DHT22;5855;48.840;9.188;2024-03-23T09:08:08;8.10;99.90
11599;DHT22;5855;48.840;9.188;2024-03-23T09:10:38;8.10;99.90
11599;DHT22;5855;48.840;9.188;2024-03-23T09:13:04;8.00;99.90
11599;DHT22;5855;48.840;9.188;2024-03-23T09:15:32;8.10;99.90
11599;DHT22;5855;48.840;9.188;2024-03-23T09:17:59;8.10;99.90
11599;DHT22;5855;48.840;9.188;2024-03-23T09:20:26;8.30;99.90
11599;DHT22;5855;48.840;9.188;2024-03-23T09:22:52;8.50;99.90
11599;DHT22;5855;48.840;9.188;2024-03-23T09:25:18;8.80;99.90
11599;DHT22;5855;48.840;9.188;2024-03-23T09:27:46;9.10;99.90
11599;DHT22;5855;48.840;9.188;2024-03-23T09:30:13;9.30;99.90
11599;DHT22;5855;48.840;9.188;2024-03-23T09:32:43;9.30;99.90
11599;DHT22;5855;48.840;9.188;2024-03-23T09:35:09;9.10;99.90
11599;DHT22;5855;48.840;9.188;2024-03-23T09:37:36;9.20;99.90
11599;DHT22;5855;48.840;9.188;2024-03-23T09:40:02;9.50;99.90
11599;DHT22;5855;48.840;9.188;2024-03-23T09:42:31;9.70;99.90
11599;DHT22;5855;48.840;9.188;2024-03-23T09:44:57;9.80;99.90
11599;DHT22;5855;48.840;9.188;2024-03-23T09:47:25;9.80;99.90
11599;DHT22;5855;48.840;9.188;2024-03-23T09:49:52;9.60;99.90
11599;DHT22;5855;48.840;9.188;2024-03-23T09:52:19;9.50;99.90
11599;DHT22;5855;48.840;9.188;2024-03-23T09:54:45;9.50;99.90
11599;DHT22;5855;48.840;9.188;2024-03-23T09:57:12;9.40;99.90
11599;DHT22;5855;48.840;9.188;2024-03-23T09:59:38;9.30;99.90
11599;DHT22;5855;48.840;9.188;2024-03-23T10:02:05;9.30;99.90
11599;DHT22;5855;48.840;9.188;2024-03-23T10:04:36;9.20;99.90
11599;DHT22;5855;48.840;9.188;2024-03-23T10:07:12;9.30;99.90
11599;DHT22;5855;48.840;9.188;2024-03-23T10:09:38;9.40;99.90
11599;DHT22;5855;48.840;9.188;2024-03-23T10:12:09;9.40;99.90
11599;DHT22;5855;48.840;9.188;2024-03-23T10:14:35;9.60;99.90
11599;DHT22;5855;48.840;9.188;2024-03-23T10:17:12;9.80;99.90
11599;DHT22;5855;48.840;9.188;2024-03-23T10:19:40;10.00;99.90
11599;DHT22;5855;48.840;9.188;2024-03-23T10:22:08;10.50;99.90
11599;DHT22;5855;48.840;9.188;2024-03-23T10:24:35;10.80;99.90
11599;DHT22;5855;48.840;9.188;2024-03-23T10:27:02;10.90;99.90
11599;DHT22;5855;48.840;9.188;2024-03-23T10:29:28;10.90;99.90
11599;DHT22;5855;48.840;9.188;2024-03-23T10:32:07;10.90;99.90
11599;DHT22;5855;48.840;9.188;2024-03-23T10:34:33;10.90;99.90
11599;DHT22;5855;48.840;9.188;2024-03-23T10:37:02;10.90;99.90
11599;DHT22;5855;48.840;9.188;2024-03-23T10:39:30;10.80;99.90
11599;DHT22;5855;48.840;9.188;2024-03-23T10:42:02;10.50;99.90
11599;DHT22;5855;48.840;9.188;2024-03-23T10:44:28;10.20;99.90
11599;DHT22;5855;48.840;9.188;2024-03-23T10:46:57;10.00;99.90
11599;DHT22;5855;48.840;9.188;2024-03-23T10:49:26;9.70;99.90
11599;DHT22;5855;48.840;9.188;2024-03-23T10:51:55;9.50;99.90
11599;DHT22;5855;48.840;9.188;2024-03-23T10:54:22;9.30;99.90
11599;DHT22;5855;48.840;9.188;2024-03-23T10:56:53;8.40;99.90
11599;DHT22;5855;48.840;9.188;2024-03-23T10:59:22;7.70;99.90
11599;DHT22;5855;48.840;9.188;2024-03-23T11:01:56;7.10;99.90
11599;DHT22;5855;48.840;9.188;2024-03-23T11:04:32;6.70;99.90
11599;DHT22;5855;48.840;9.188;2024-03-23T11:06:59;6.40;99.90
11599;DHT22;5855;48.840;9.188;2024-03-23T11:09:42;6.00;99.90
11599;DHT22;5855;48.840;9.188;2024-03-23T11:12:30;5.70;99.90
11599;DHT22;5855;48.840;9.188;2024-03-23T11:15:01;5.70;99.90
11599;DHT22;5855;48.840;9.188;2024-03-23T11:17:28;5.90;99.90
11599;DHT22;5855;48.840;9.188;2024-03-23T11:19:55;6.10;99.90
11599;DHT22;5855;48.840;9.188;2024-03-23T11:22:39;6.40;99.90
11599;DHT22;5855;48.840;9.188;2024-03-23T11:25:13;6.60;99.90
11599;DHT22;5855;48.840;9.188;2024-03-23T11:27:40;6.90;99.90
11599;DHT22;5855;48.840;9.188;2024-03-23T11:30:15;7.90;99.90
11599;DHT22;5855;48.840;9.188;2024-03-23T11:32:43;8.80;99.90
11599;DHT22;5855;48.840;9.188;2024-03-23T11:35:09;9.70;99.90
11599;DHT22;5855;48.840;9.188;2024-03-23T11:37:37;10.00;99.90
11599;DHT22;5855;48.840;9.188;2024-03-23T11:40:19;9.80;99.90
11599;DHT22;5855;48.840;9.188;2024-03-23T11:42:46;10.10;99.90
11599;DHT22;5855;48.840;9.188;2024-03-23T11:45:14;10.00;99.90
11599;DHT22;5855;48.840;9.188;2024-03-23T11:47:41;10.10;99.90
11599;DHT22;5855;48.840;9.188;2024-03-23T11:50:08;10.00;99.90
11599;DHT22;5855;48.840;9.188;2024-03-23T11:52:35;9.80;99.90
11599;DHT22;5855;48.840;9.188;2024-03-23T11:55:05;9.60;99.90
11599;DHT22;5855;48.840;9.188;2024-03-23T11:57:33;9.40;99.90
11599;DHT22;5855;48.840;9.188;2024-03-23T11:59:59;9.20;99.90
11599;DHT22;5855;48.840;9.188;2024-03-23T12:02:28;9.30;99.90
11599;DHT22;5855;48.840;9.188;2024-03-23T12:04:54;9.40;99.90
11599;DHT22;5855;48.840;9.188;2024-03-23T12:07:21;9.30;99.90
11599;DHT22;5855;48.840;9.188;2024-03-23T12:10:02;9.20;99.90
11599;DHT22;5855;48.840;9.188;2024-03-23T12:12:29;9.00;99.90
11599;DHT22;5855;48.840;9.188;2024-03-23T12:15:02;8.80;99.90
11599;DHT22;5855;48.840;9.188;2024-03-23T12:17:30;9.00;99.90
11599;DHT22;5855;48.840;9.188;2024-03-23T12:19:56;9.30;99.90
11599;DHT22;5855;48.840;9.188;2024-03-23T12:22:23;10.00;99.90
11599;DHT22;5855;48.840;9.188;2024-03-23T12:24:49;11.60;99.90
11599;DHT22;5855;48.840;9.188;2024-03-23T12:27:16;12.80;99.90
11599;DHT22;5855;48.840;9.188;2024-03-23T12:29:42;13.30;99.90
11599;DHT22;5855;48.840;9.188;2024-03-23T12:32:12;12.70;99.90
11599;DHT22;5855;48.840;9.188;2024-03-23T12:34:39;12.10;99.90
11599;DHT22;5855;48.840;9.188;2024-03-23T12:37:06;11.90;99.90
11599;DHT22;5855;48.840;9.188;2024-03-23T12:39:32;12.30;99.90
11599;DHT22;5855;48.840;9.188;2024-03-23T12:42:00;12.10;99.90
11599;DHT22;5855;48.840;9.188;2024-03-23T12:44:26;11.90;99.90
11599;DHT22;5855;48.840;9.188;2024-03-23T12:46:53;11.20;99.90
11599;DHT22;5855;48.840;9.188;2024-03-23T12:49:19;10.80;99.90
11599;DHT22;5855;48.840;9.188;2024-03-23T12:51:53;10.30;99.90
11599;DHT22;5855;48.840;9.188;2024-03-23T12:54:20;10.10;99.90
11599;DHT22;5855;48.840;9.188;2024-03-23T12:56:47;10.00;99.90
11599;DHT22;5855;48.840;9.188;2024-03-23T12:59:13;10.00;99.90
11599;DHT22;5855;48.840;9.188;2024-03-23T13:01:40;10.00;99.90
11599;DHT22;5855;48.840;9.188;2024-03-23T13:04:06;10.30;99.90
11599;DHT22;5855;48.840;9.188;2024-03-23T13:06:33;11.80;99.90
11599;DHT22;5855;48.840;9.188;2024-03-23T13:09:01;12.60;99.90
11599;DHT22;5855;48.840;9.188;2024-03-23T13:11:28;12.90;99.90
11599;DHT22;5855;48.840;9.188;2024-03-23T13:13:54;13.40;99.90
11599;DHT22;5855;48.840;9.188;2024-03-23T13:16:21;14.20;99.90
11599;DHT22;5855;48.840;9.188;2024-03-23T13:18:47;14.50;96.60
11599;DHT22;5855;48.840;9.188;2024-03-23T13:21:14;14.20;96.90
11599;DHT22;5855;48.840;9.188;2024-03-23T13:23:40;14.20;96.50
11599;DHT22;5855;48.840;9.188;2024-03-23T13:26:09;14.80;95.40
11599;DHT22;5855;48.840;9.188;2024-03-23T13:28:35;15.30;93.50
11599;DHT22;5855;48.840;9.188;2024-03-23T13:31:02;15.40;88.90
11599;DHT22;5855;48.840;9.188;2024-03-23T13:33:29;14.80;90.50
11599;DHT22;5855;48.840;9.188;2024-03-23T13:35:57;14.00;89.00
11599;DHT22;5855;48.840;9.188;2024-03-23T13:38:24;13.90;90.60
11599;DHT22;5855;48.840;9.188;2024-03-23T13:40:52;13.50;85.20
11599;DHT22;5855;48.840;9.188;2024-03-23T13:43:19;13.40;88.10
11599;DHT22;5855;48.840;9.188;2024-03-23T13:45:47;14.50;87.10
11599;DHT22;5855;48.840;9.188;2024-03-23T13:48:13;15.50;86.70
11599;DHT22;5855;48.840;9.188;2024-03-23T13:50:41;16.20;79.50
11599;DHT22;5855;48.840;9.188;2024-03-23T13:53:07;16.00;78.20
11599;DHT22;5855;48.840;9.188;2024-03-23T13:55:34;14.80;77.50
11599;DHT22;5855;48.840;9.188;2024-03-23T13:58:00;13.40;86.30
11599;DHT22;5855;48.840;9.188;2024-03-23T14:00:28;11.60;99.00
11599;DHT22;5855;48.840;9.188;2024-03-23T14:02:54;10.20;99.90
11599;DHT22;5855;48.840;9.188;2024-03-23T14:05:20;9.00;99.90
11599;DHT22;5855;48.840;9.188;2024-03-23T14:07:46;7.80;99.90
11599;DHT22;5855;48.840;9.188;2024-03-23T14:10:13;7.20;99.90
11599;DHT22;5855;48.840;9.188;2024-03-23T14:12:39;6.70;99.90
11599;DHT22;5855;48.840;9.188;2024-03-23T14:15:07;6.30;99.90
11599;DHT22;5855;48.840;9.188;2024-03-23T14:17:35;5.80;99.90
11599;DHT22;5855;48.840;9.188;2024-03-23T14:20:01;5.60;99.90
11599;DHT22;5855;48.840;9.188;2024-03-23T14:22:30;5.50;99.90
11599;DHT22;5855;48.840;9.188;2024-03-23T14:24:57;5.20;99.90
11599;DHT22;5855;48.840;9.188;2024-03-23T14:27:24;4.80;99.90
11599;DHT22;5855;48.840;9.188;2024-03-23T14:29:51;4.60;99.90
11599;DHT22;5855;48.840;9.188;2024-03-23T14:32:16;4.70;99.90
11599;DHT22;5855;48.840;9.188;2024-03-23T14:34:45;6.20;99.90
11599;DHT22;5855;48.840;9.188;2024-03-23T14:37:10;7.80;99.90
11599;DHT22;5855;48.840;9.188;2024-03-23T14:39:37;9.60;99.90
11599;DHT22;5855;48.840;9.188;2024-03-23T14:42:05;11.10;99.90
11599;DHT22;5855;48.840;9.188;2024-03-23T14:44:34;12.20;99.90
11599;DHT22;5855;48.840;9.188;2024-03-23T14:46:59;12.90;99.90
11599;DHT22;5855;48.840;9.188;2024-03-23T14:49:26;13.20;99.90
11599;DHT22;5855;48.840;9.188;2024-03-23T14:51:53;13.80;99.90
11599;DHT22;5855;48.840;9.188;2024-03-23T14:54:20;14.60;99.90
11599;DHT22;5855;48.840;9.188;2024-03-23T14:56:46;13.10;99.90
11599;DHT22;5855;48.840;9.188;2024-03-23T14:59:14;11.30;99.90
11599;DHT22;5855;48.840;9.188;2024-03-23T15:01:39;10.10;99.90
11599;DHT22;5855;48.840;9.188;2024-03-23T15:04:07;9.30;99.90
11599;DHT22;5855;48.840;9.188;2024-03-23T15:06:33;8.50;99.90
11599;DHT22;5855;48.840;9.188;2024-03-23T15:09:02;8.00;99.90
11599;DHT22;5855;48.840;9.188;2024-03-23T15:11:32;7.90;99.90
11599;DHT22;5855;48.840;9.188;2024-03-23T15:13:59;8.10;99.90
11599;DHT22;5855;48.840;9.188;2024-03-23T15:16:25;8.50;99.90
11599;DHT22;5855;48.840;9.188;2024-03-23T15:18:52;8.80;99.90
11599;DHT22;5855;48.840;9.188;2024-03-23T15:21:17;9.10;99.90
11599;DHT22;5855;48.840;9.188;2024-03-23T15:23:46;9.90;99.90
11599;DHT22;5855;48.840;9.188;2024-03-23T15:26:14;11.20;99.90
11599;DHT22;5855;48.840;9.188;2024-03-23T15:28:41;12.30;99.90
11599;DHT22;5855;48.840;9.188;2024-03-23T15:31:27;12.80;99.90
11599;DHT22;5855;48.840;9.188;2024-03-23T15:33:55;13.70;99.90
11599;DHT22;5855;48.840;9.188;2024-03-23T15:36:21;14.10;99.90
11599;DHT22;5855;48.840;9.188;2024-03-23T15:38:47;14.10;99.90
11599;DHT22;5855;48.840;9.188;2024-03-23T15:41:15;14.30;99.90
11599;DHT22;5855;48.840;9.188;2024-03-23T15:43:42;14.20;99.90
11599;DHT22;5855;48.840;9.188;2024-03-23T15:46:08;14.30;99.90
11599;DHT22;5855;48.840;9.188;2024-03-23T15:48:36;14.20;99.90
11599;DHT22;5855;48.840;9.188;2024-03-23T15:51:03;14.10;99.90
11599;DHT22;5855;48.840;9.188;2024-03-23T15:53:30;14.70;99.90
11599;DHT22;5855;48.840;9.188;2024-03-23T15:55:57;15.10;99.90
11599;DHT22;5855;48.840;9.188;2024-03-23T15:58:25;15.20;99.80
11599;DHT22;5855;48.840;9.188;2024-03-23T16:00:55;15.00;98.20
11599;DHT22;5855;48.840;9.188;2024-03-23T16:03:21;14.60;98.20
11599;DHT22;5855;48.840;9.188;2024-03-23T16:05:50;14.40;98.30
11599;DHT22;5855;48.840;9.188;2024-03-23T16:08:17;13.60;99.70
11599;DHT22;5855;48.840;9.188;2024-03-23T16:10:43;13.40;99.90
11599;DHT22;5855;48.840;9.188;2024-03-23T16:13:10;13.70;99.30
11599;DHT22;5855;48.840;9.188;2024-03-23T16:15:37;13.70;99.90
11599;DHT22;5855;48.840;9.188;2024-03-23T16:18:04;14.10;99.50
11599;DHT22;5855;48.840;9.188;2024-03-23T16:20:30;14.00;99.20
11599;DHT22;5855;48.840;9.188;2024-03-23T16:22:59;12.50;99.90
11599;DHT22;5855;48.840;9.188;2024-03-23T16:25:25;11.60;99.90
11599;DHT22;5855;48.840;9.188;2024-03-23T16:27:51;10.80;99.90
11599;DHT22;5855;48.840;9.188;2024-03-23T16:30:18;10.20;99.90
11599;DHT22;5855;48.840;9.188;2024-03-23T16:32:47;9.70;99.90
11599;DHT22;5855;48.840;9.188;2024-03-23T16:35:13;9.40;99.90
11599;DHT22;5855;48.840;9.188;2024-03-23T16:37:41;8.90;99.90
11599;DHT22;5855;48.840;9.188;2024-03-23T16:40:08;8.80;99.90
11599;DHT22;5855;48.840;9.188;2024-03-23T16:42:35;8.60;99.90
11599;DHT22;5855;48.840;9.188;2024-03-23T16:45:01;8.50;99.90
11599;DHT22;5855;48.840;9.188;2024-03-23T16:47:29;8.30;99.90